createdAt,value
2023-05-14T00:00:56.851Z,16.63
2023-05-14T00:03:24.540Z,11.80
2023-05-14T00:05:52.633Z,11.00
2023-05-14T00:08:21.700Z,11.77
2023-05-14T00:10:49.733Z,14.98
2023-05-14T00:13:17.401Z,14.82
2023-05-14T00:15:45.226Z,17.25
2023-05-14T00:18:13.458Z,12.25
2023-05-14T00:20:42.038Z,16.30
2023-05-14T00:23:09.790Z,13.93
2023-05-14T00:25:38.890Z,18.45
2023-05-14T00:28:06.868Z,17.85
2023-05-14T00:30:34.956Z,11.88
2023-05-14T00:33:02.718Z,15.35
2023-05-14T00:35:30.760Z,14.43
2023-05-14T00:37:58.469Z,11.25
2023-05-14T00:40:27.845Z,16.30
2023-05-14T00:42:57.512Z,22.58
2023-05-14T00:45:25.759Z,12.70
2023-05-14T00:47:53.789Z,14.20
2023-05-14T00:50:22.395Z,16.27
2023-05-14T00:52:50.795Z,15.02
2023-05-14T00:55:18.666Z,14.65
2023-05-14T00:57:46.438Z,14.77
2023-05-14T01:00:16.738Z,13.68
2023-05-14T01:02:44.524Z,19.27
2023-05-14T01:05:12.394Z,14.13
2023-05-14T01:07:46.380Z,18.43
2023-05-14T01:10:16.929Z,18.40
2023-05-14T01:12:51.709Z,16.67
2023-05-14T01:15:23.167Z,17.02
2023-05-14T01:17:53.567Z,16.40
2023-05-14T01:20:21.643Z,16.92
2023-05-14T01:22:51.131Z,14.73
2023-05-14T01:25:18.949Z,14.85
2023-05-14T01:27:51.454Z,16.30
2023-05-14T01:30:21.512Z,18.73
2023-05-14T01:32:52.709Z,15.68
2023-05-14T01:35:21.654Z,13.55
2023-05-14T01:37:51.440Z,14.93
2023-05-14T01:40:19.486Z,16.13
2023-05-14T01:42:47.501Z,16.90
2023-05-14T01:45:15.294Z,13.98
2023-05-14T01:47:43.102Z,19.45
2023-05-14T01:50:12.058Z,15.27
2023-05-14T01:52:39.807Z,13.50
2023-05-14T01:55:10.173Z,18.70
2023-05-14T01:57:37.858Z,15.93
2023-05-14T02:00:06.761Z,16.23
2023-05-14T02:02:34.516Z,15.93
2023-05-14T02:05:02.681Z,15.48
2023-05-14T02:07:31.332Z,16.35
2023-05-14T02:09:59.488Z,19.77
2023-05-14T02:12:28.572Z,14.90
2023-05-14T02:14:56.311Z,20.03
2023-05-14T02:17:24.992Z,13.80
2023-05-14T02:19:52.749Z,19.43
2023-05-14T02:22:20.478Z,14.75
2023-05-14T02:24:49.743Z,14.63
2023-05-14T02:27:17.648Z,12.52
2023-05-14T02:29:46.809Z,12.13
2023-05-14T02:32:14.534Z,11.93
2023-05-14T02:34:42.246Z,14.50
2023-05-14T02:37:09.929Z,19.15
2023-05-14T02:39:37.630Z,15.75
2023-05-14T02:42:06.911Z,13.68
2023-05-14T02:44:34.570Z,13.30
2023-05-14T02:47:04.064Z,16.27
2023-05-14T02:49:31.862Z,15.63
2023-05-14T02:52:00.908Z,17.20
2023-05-14T02:54:28.595Z,17.65
2023-05-14T02:56:56.284Z,12.60
2023-05-14T02:59:25.668Z,16.65
2023-05-14T03:01:54.096Z,13.38
2023-05-14T03:04:23.481Z,14.20
2023-05-14T03:06:51.295Z,15.30
2023-05-14T03:09:19.029Z,16.10
2023-05-14T03:11:47.100Z,13.73
2023-05-14T03:14:14.926Z,15.02
2023-05-14T03:16:42.672Z,19.80
2023-05-14T03:19:10.884Z,18.33
2023-05-14T03:21:40.019Z,16.33
2023-05-14T03:24:08.015Z,20.73
2023-05-14T03:26:35.741Z,16.25
2023-05-14T03:29:03.968Z,19.50
2023-05-14T03:31:31.656Z,15.30
2023-05-14T03:33:59.549Z,12.47
2023-05-14T03:36:27.241Z,12.80
2023-05-14T03:38:56.297Z,13.35
2023-05-14T03:41:24.268Z,15.00
2023-05-14T03:43:52.370Z,12.80
2023-05-14T03:46:20.044Z,12.75
2023-05-14T03:48:47.769Z,15.52
2023-05-14T03:51:15.692Z,15.15
2023-05-14T03:53:43.428Z,18.85
2023-05-14T03:56:12.520Z,19.77
2023-05-14T03:58:40.728Z,12.45
2023-05-14T04:01:08.391Z,14.57
2023-05-14T04:03:36.225Z,17.50
2023-05-14T04:06:04.091Z,21.02
2023-05-14T04:08:32.117Z,20.33
2023-05-14T04:10:59.798Z,22.23
2023-05-14T04:13:28.901Z,14.40
2023-05-14T04:15:56.932Z,17.50
2023-05-14T04:18:24.719Z,19.88
2023-05-14T04:20:52.420Z,16.63
2023-05-14T04:23:20.100Z,18.42
2023-05-14T04:25:47.764Z,18.65
2023-05-14T04:28:15.650Z,15.57
2023-05-14T04:30:45.683Z,21.17
2023-05-14T04:33:13.471Z,19.15
2023-05-14T04:35:41.548Z,18.47
2023-05-14T04:38:10.050Z,22.10
2023-05-14T04:40:37.891Z,16.77
2023-05-14T04:43:05.569Z,16.30
2023-05-14T04:45:34.341Z,15.13
2023-05-14T04:48:03.849Z,16.20
2023-05-14T04:50:38.604Z,18.70
2023-05-14T04:53:06.302Z,17.35
2023-05-14T04:55:34.287Z,19.70
2023-05-14T04:58:02.309Z,21.75
2023-05-14T05:00:30.530Z,18.42
2023-05-14T05:02:58.316Z,18.73
2023-05-14T05:05:27.484Z,25.23
2023-05-14T05:07:55.682Z,19.13
2023-05-14T05:10:23.829Z,19.63
2023-05-14T05:12:52.037Z,22.73
2023-05-14T05:15:19.716Z,19.05
2023-05-14T05:17:47.417Z,20.00
2023-05-14T05:20:15.461Z,20.02
2023-05-14T05:22:44.776Z,16.70
2023-05-14T05:25:13.015Z,22.40
2023-05-14T05:27:40.712Z,16.30
2023-05-14T05:30:09.979Z,19.73
2023-05-14T05:32:37.869Z,17.80
2023-05-14T05:35:06.569Z,18.27
2023-05-14T05:37:34.271Z,18.20
2023-05-14T05:40:04.281Z,23.45
2023-05-14T05:42:31.982Z,17.92
2023-05-14T05:44:59.645Z,19.63
2023-05-14T05:47:27.619Z,22.65
2023-05-14T05:49:55.650Z,20.52
2023-05-14T05:52:23.325Z,18.88
2023-05-14T05:57:34.166Z,19.00
2023-05-14T06:00:07.979Z,20.10
2023-05-14T06:02:36.044Z,20.42
2023-05-14T06:05:03.904Z,16.05
2023-05-14T06:07:32.047Z,16.17
2023-05-14T06:09:59.726Z,17.80
2023-05-14T06:12:27.459Z,19.05
2023-05-14T06:14:57.856Z,18.75
2023-05-14T06:17:25.711Z,14.23
2023-05-14T06:19:54.061Z,13.52
2023-05-14T06:22:21.988Z,13.00
2023-05-14T06:24:49.723Z,12.25
2023-05-14T06:27:17.422Z,11.10
2023-05-14T06:29:45.317Z,13.73
2023-05-14T06:32:15.780Z,11.50
2023-05-14T06:34:43.847Z,12.43
2023-05-14T06:37:12.330Z,10.50
2023-05-14T06:39:40.562Z,10.10
2023-05-14T06:42:08.560Z,16.42
2023-05-14T06:44:36.266Z,12.37
2023-05-14T06:47:03.926Z,9.05
2023-05-14T06:49:33.339Z,11.02
2023-05-14T06:52:01.022Z,10.27
2023-05-14T06:54:28.723Z,11.52
2023-05-14T06:56:56.379Z,11.47
2023-05-14T06:59:24.045Z,10.80
2023-05-14T07:01:51.805Z,8.35
2023-05-14T07:04:19.975Z,13.43
2023-05-14T07:06:49.359Z,10.18
2023-05-14T07:09:17.469Z,13.27
2023-05-14T07:11:45.173Z,8.57
2023-05-14T07:14:12.990Z,10.45
2023-05-14T07:16:41.879Z,8.85
2023-05-14T07:19:09.952Z,9.35
2023-05-14T07:21:37.704Z,7.40
2023-05-14T07:24:07.386Z,6.30
2023-05-14T07:26:35.282Z,6.43
2023-05-14T07:29:02.950Z,6.27
2023-05-14T07:31:30.864Z,5.82
2023-05-14T07:33:58.904Z,7.53
2023-05-14T07:36:26.674Z,6.03
2023-05-14T07:38:54.326Z,5.32
2023-05-14T07:41:23.365Z,6.45
2023-05-14T07:43:51.024Z,4.85
2023-05-14T07:46:18.671Z,5.93
2023-05-14T07:48:46.608Z,5.35
2023-05-14T07:51:14.252Z,4.88
2023-05-14T07:53:42.206Z,6.93
2023-05-14T07:56:09.868Z,6.65
2023-05-14T07:58:38.942Z,5.57
2023-05-14T08:01:09.160Z,7.78
2023-05-14T08:03:37.048Z,5.88
2023-05-14T08:06:05.139Z,7.45
2023-05-14T08:08:32.956Z,6.80
2023-05-14T08:11:00.761Z,7.90
2023-05-14T08:13:28.546Z,3.83
2023-05-14T08:15:57.768Z,3.13
2023-05-14T08:18:25.619Z,5.72
2023-05-14T08:20:53.279Z,3.47
2023-05-14T08:23:20.964Z,2.63
2023-05-14T08:25:48.596Z,3.85
2023-05-14T08:28:16.317Z,3.07
2023-05-14T08:30:43.982Z,3.90
2023-05-14T08:33:13.109Z,2.97
2023-05-14T08:35:40.805Z,3.08
2023-05-14T08:38:08.693Z,3.00
2023-05-14T08:40:36.483Z,2.90
2023-05-14T08:43:04.179Z,3.67
2023-05-14T08:45:34.348Z,3.92
2023-05-14T08:48:02.774Z,2.50
2023-05-14T08:53:17.123Z,2.63
2023-05-14T08:55:45.523Z,2.00
2023-05-14T08:58:13.343Z,2.90
2023-05-14T09:00:41.143Z,2.72
2023-05-14T09:03:08.933Z,2.73
2023-05-14T09:05:36.687Z,2.58
2023-05-14T09:08:04.460Z,2.60
2023-05-14T09:10:33.647Z,2.10
2023-05-14T09:13:01.384Z,2.22
2023-05-14T09:15:29.360Z,3.40
2023-05-14T09:17:57.698Z,3.08
2023-05-14T09:23:01.768Z,2.63
2023-05-14T09:25:33.539Z,1.50
2023-05-14T09:28:01.227Z,2.23
2023-05-14T09:30:28.954Z,2.88
2023-05-14T09:32:56.649Z,2.88
2023-05-14T09:35:25.470Z,2.10
2023-05-14T09:37:54.327Z,2.72
2023-05-14T09:40:24.409Z,2.47
2023-05-14T09:42:53.964Z,2.30
2023-05-14T09:45:21.658Z,2.05
2023-05-14T09:47:49.480Z,2.22
2023-05-14T09:50:17.472Z,3.17
2023-05-14T09:52:45.134Z,1.90
2023-05-14T09:55:13.049Z,1.30
2023-05-14T09:57:41.014Z,5.28
2023-05-14T10:00:12.732Z,2.65
2023-05-14T10:02:41.845Z,2.33
2023-05-14T10:05:10.388Z,4.90
2023-05-14T10:07:41.708Z,3.35
2023-05-14T10:10:12.862Z,2.20
2023-05-14T10:12:41.807Z,2.30
2023-05-14T10:15:16.846Z,3.60
2023-05-14T10:17:46.142Z,3.85
2023-05-14T10:20:16.705Z,3.95
2023-05-14T10:22:44.450Z,5.15
2023-05-14T10:25:12.400Z,2.33
2023-05-14T10:27:40.452Z,3.67
2023-05-14T10:30:13.742Z,2.90
2023-05-14T10:32:42.055Z,2.00
2023-05-14T10:35:20.693Z,2.95
2023-05-14T10:37:48.778Z,3.60
2023-05-14T10:40:17.909Z,7.55
2023-05-14T10:42:47.546Z,4.40
2023-05-14T10:45:17.150Z,2.17
2023-05-14T10:47:47.456Z,6.28
2023-05-14T10:50:17.411Z,3.05
2023-05-14T10:52:46.238Z,3.43
2023-05-14T10:55:15.787Z,3.20
2023-05-14T10:57:45.802Z,1.60
2023-05-14T11:00:14.882Z,2.58
2023-05-14T11:02:45.732Z,2.67
2023-05-14T11:05:16.039Z,3.50
2023-05-14T11:07:45.045Z,2.38
2023-05-14T11:10:14.249Z,3.33
2023-05-14T11:12:43.053Z,2.25
2023-05-14T11:15:12.046Z,2.00
2023-05-14T11:17:41.271Z,2.05
2023-05-14T11:20:12.278Z,4.40
2023-05-14T11:22:41.403Z,3.75
2023-05-14T11:25:10.214Z,5.60
2023-05-14T11:27:39.441Z,2.65
2023-05-14T11:30:14.232Z,4.80
2023-05-14T11:32:42.187Z,2.55
2023-05-14T11:35:11.410Z,2.95
2023-05-14T11:37:39.058Z,2.92
2023-05-14T11:40:10.883Z,3.58
2023-05-14T11:42:38.663Z,2.08
2023-05-14T11:45:07.546Z,1.83
2023-05-14T11:47:35.205Z,2.20
2023-05-14T11:50:02.890Z,3.00
2023-05-14T11:52:31.917Z,2.80
2023-05-14T11:54:59.557Z,2.35
2023-05-14T11:57:27.192Z,2.50
2023-05-14T11:59:57.994Z,1.83
2023-05-14T12:02:48.528Z,2.57
2023-05-14T12:05:16.323Z,2.37
2023-05-14T12:07:47.265Z,2.88
2023-05-14T12:10:15.252Z,1.73
2023-05-14T12:12:46.655Z,2.10
2023-05-14T12:15:16.396Z,2.50
2023-05-14T12:17:44.453Z,1.90
2023-05-14T12:20:13.211Z,2.60
2023-05-14T12:22:43.244Z,2.17
2023-05-14T12:25:14.547Z,1.85
2023-05-14T12:27:45.019Z,1.73
2023-05-14T12:30:21.212Z,2.60
2023-05-14T12:32:55.294Z,1.75
2023-05-14T12:35:23.755Z,1.73
2023-05-14T12:37:51.667Z,2.72
2023-05-14T12:40:21.043Z,2.97
2023-05-14T12:42:48.707Z,1.30
2023-05-14T12:45:16.349Z,2.07
2023-05-14T12:47:44.046Z,4.00
2023-05-14T12:50:12.404Z,2.05
2023-05-14T12:52:40.312Z,2.55
2023-05-14T12:55:09.068Z,6.50
2023-05-14T12:57:39.092Z,2.00
2023-05-14T13:00:08.611Z,7.78
2023-05-14T13:02:42.070Z,1.58
2023-05-14T13:05:11.357Z,1.20
2023-05-14T13:07:39.314Z,1.15
2023-05-14T13:10:08.211Z,1.37
2023-05-14T13:12:35.998Z,2.17
2023-05-14T13:15:05.856Z,3.50
2023-05-14T13:17:33.756Z,4.25
2023-05-14T13:20:01.436Z,1.30
2023-05-14T13:22:29.107Z,5.20
2023-05-14T13:24:56.790Z,1.08
2023-05-14T13:27:24.488Z,1.98
2023-05-14T13:29:52.171Z,1.60
2023-05-14T13:32:21.409Z,2.70
2023-05-14T13:34:49.121Z,2.90
2023-05-14T13:37:16.972Z,1.13
2023-05-14T13:39:44.707Z,4.40
2023-05-14T13:42:12.383Z,1.73
2023-05-14T13:44:40.234Z,3.28
2023-05-14T13:47:08.216Z,3.15
2023-05-14T13:49:37.361Z,3.60
2023-05-14T13:52:06.219Z,1.25
2023-05-14T13:54:33.939Z,2.50
2023-05-14T13:57:01.626Z,3.00
2023-05-14T13:59:29.323Z,1.50
2023-05-14T14:01:57.218Z,3.40
2023-05-14T14:04:28.912Z,1.90
2023-05-14T14:06:58.121Z,2.70
2023-05-14T14:09:26.265Z,2.30
2023-05-14T14:11:54.025Z,5.77
2023-05-14T14:14:21.951Z,3.33
2023-05-14T14:16:49.599Z,2.75
2023-05-14T14:19:18.505Z,2.40
2023-05-14T14:21:46.378Z,6.50
2023-05-14T14:24:15.473Z,1.40
2023-05-14T14:26:43.680Z,1.27
2023-05-14T14:29:11.384Z,1.48
2023-05-14T14:31:39.097Z,2.58
2023-05-14T14:34:06.789Z,4.80
2023-05-14T14:36:34.659Z,1.42
2023-05-14T14:39:02.544Z,4.37
2023-05-14T14:41:31.659Z,1.50
2023-05-14T14:43:59.312Z,2.78
2023-05-14T14:46:27.608Z,1.45
2023-05-14T14:48:55.510Z,2.50
2023-05-14T14:51:23.328Z,1.10
2023-05-14T14:53:51.178Z,1.20
2023-05-14T14:56:18.870Z,1.40
2023-05-14T14:58:47.981Z,1.35
2023-05-14T15:01:15.907Z,3.28
2023-05-14T15:03:45.640Z,1.98
2023-05-14T15:06:13.677Z,2.25
2023-05-14T15:08:41.802Z,3.20
2023-05-14T15:11:09.885Z,1.40
2023-05-14T15:13:37.557Z,1.50
2023-05-14T15:16:07.163Z,1.88
2023-05-14T15:18:34.905Z,2.30
2023-05-14T15:21:02.632Z,3.85
2023-05-14T15:23:30.379Z,3.13
2023-05-14T15:25:58.150Z,4.27
2023-05-14T15:28:25.858Z,4.85
2023-05-14T15:30:54.447Z,2.72
2023-05-14T15:33:23.723Z,1.70
2023-05-14T15:35:51.512Z,2.17
2023-05-14T15:38:19.530Z,0.98
2023-05-14T15:40:47.234Z,2.43
2023-05-14T15:43:14.961Z,2.10
2023-05-14T15:45:43.890Z,2.42
2023-05-14T15:48:11.799Z,2.28
2023-05-14T15:50:41.897Z,1.42
2023-05-14T15:53:09.865Z,2.30
2023-05-14T15:55:37.547Z,3.80
2023-05-14T15:58:05.445Z,1.67
2023-05-14T16:00:33.289Z,3.40
2023-05-14T16:03:01.040Z,2.50
2023-05-14T16:05:28.945Z,4.68
2023-05-14T16:07:58.107Z,2.03
2023-05-14T16:10:26.106Z,4.80
2023-05-14T16:12:54.015Z,1.63
2023-05-14T16:15:21.974Z,3.92
2023-05-14T16:17:49.831Z,2.60
2023-05-14T16:20:17.768Z,1.95
2023-05-14T16:22:45.877Z,5.07
2023-05-14T16:25:15.146Z,3.15
2023-05-14T16:27:43.129Z,3.20
2023-05-14T16:30:11.603Z,2.47
2023-05-14T16:32:40.452Z,1.60
2023-05-14T16:35:08.729Z,2.45
2023-05-14T16:37:36.567Z,2.65
2023-05-14T16:40:05.211Z,5.03
2023-05-14T16:42:34.265Z,2.70
2023-05-14T16:45:01.959Z,4.20
2023-05-14T16:47:29.746Z,4.63
2023-05-14T16:49:57.639Z,3.45
2023-05-14T16:52:41.432Z,4.05
2023-05-14T16:55:10.547Z,4.18
2023-05-14T16:57:39.683Z,1.98
2023-05-14T17:00:09.556Z,6.45
2023-05-14T17:02:37.342Z,4.00
2023-05-14T17:05:05.711Z,4.28
2023-05-14T17:07:33.428Z,7.28
2023-05-14T17:10:01.243Z,4.65
2023-05-14T17:12:29.142Z,2.53
2023-05-14T17:14:58.190Z,2.05
2023-05-14T17:17:25.925Z,3.33
2023-05-14T17:19:54.150Z,3.38
2023-05-14T17:22:21.833Z,4.68
2023-05-14T17:24:49.547Z,5.13
2023-05-14T17:27:17.196Z,4.93
2023-05-14T17:29:44.915Z,6.47
2023-05-14T17:32:14.120Z,5.28
2023-05-14T17:34:41.849Z,3.42
2023-05-14T17:37:09.580Z,3.57
2023-05-14T17:39:37.358Z,4.43
2023-05-14T17:42:06.121Z,6.55
2023-05-14T17:44:33.802Z,4.22
2023-05-14T17:47:03.077Z,3.65
2023-05-14T17:49:32.274Z,5.75
2023-05-14T17:52:00.398Z,4.18
2023-05-14T17:54:28.152Z,5.27
2023-05-14T17:56:56.175Z,4.03
2023-05-14T17:59:24.362Z,5.00
2023-05-14T18:01:52.371Z,3.40
2023-05-14T18:04:20.402Z,3.05
2023-05-14T18:06:49.563Z,3.67
2023-05-14T18:09:17.355Z,3.20
2023-05-14T18:14:45.422Z,5.55
2023-05-14T18:17:13.653Z,4.07
2023-05-14T18:19:41.738Z,3.83
2023-05-14T18:22:10.810Z,3.65
2023-05-14T18:24:38.779Z,2.60
2023-05-14T18:27:06.905Z,4.77
2023-05-14T18:29:34.609Z,2.85
2023-05-14T18:32:02.487Z,4.10
2023-05-14T18:34:30.251Z,2.40
2023-05-14T18:36:58.598Z,7.40
2023-05-14T18:39:28.177Z,2.10
2023-05-14T18:41:56.737Z,4.30
2023-05-14T18:44:24.669Z,4.07
2023-05-14T18:46:52.453Z,3.95
2023-05-14T18:49:20.466Z,3.17
2023-05-14T18:51:48.282Z,3.53
2023-05-14T18:54:15.936Z,3.42
2023-05-14T18:56:47.488Z,3.08
2023-05-14T18:59:15.601Z,4.07
2023-05-14T19:01:43.438Z,3.40
2023-05-14T19:04:11.459Z,4.50
2023-05-14T19:06:40.277Z,4.70
2023-05-14T19:09:08.065Z,3.55
2023-05-14T19:11:35.895Z,3.27
2023-05-14T19:14:04.975Z,6.43
2023-05-14T19:16:32.800Z,3.88
2023-05-14T19:19:01.037Z,4.30
2023-05-14T19:21:28.789Z,7.95
2023-05-14T19:23:56.532Z,6.50
2023-05-14T19:26:24.237Z,5.80
2023-05-14T19:28:52.659Z,4.35
2023-05-14T19:31:21.761Z,5.47
2023-05-14T19:33:49.769Z,6.68
2023-05-14T19:36:17.482Z,9.33
2023-05-14T19:38:45.147Z,5.95
2023-05-14T19:41:13.144Z,6.23
2023-05-14T19:43:40.910Z,5.85
2023-05-14T19:46:08.743Z,5.68
2023-05-14T19:48:38.805Z,7.22
2023-05-14T19:51:06.503Z,7.97
2023-05-14T19:53:34.325Z,6.13
2023-05-14T19:56:03.510Z,7.03
2023-05-14T19:58:31.207Z,5.25
2023-05-14T20:01:00.946Z,5.00
2023-05-14T20:03:29.769Z,6.90
2023-05-14T20:05:59.156Z,7.97
2023-05-14T20:08:28.998Z,7.20
2023-05-14T20:10:56.719Z,4.35
2023-05-14T20:13:25.236Z,4.53
2023-05-14T20:15:55.054Z,4.13
2023-05-14T20:18:22.951Z,4.45
2023-05-14T20:20:50.624Z,6.07
2023-05-14T20:23:20.707Z,3.90
2023-05-14T20:25:48.702Z,4.28
2023-05-14T20:28:16.423Z,4.65
2023-05-14T20:30:44.126Z,5.13
2023-05-14T20:33:13.395Z,7.93
2023-05-14T20:35:43.796Z,7.30
2023-05-14T20:38:12.755Z,7.20
2023-05-14T20:40:42.232Z,4.30
2023-05-14T20:43:10.054Z,3.67
2023-05-14T20:45:37.738Z,4.07
2023-05-14T20:48:09.846Z,4.47
2023-05-14T20:50:37.707Z,6.53
2023-05-14T20:53:05.490Z,4.68
2023-05-14T20:55:33.182Z,5.07
2023-05-14T20:58:02.512Z,5.75
2023-05-14T21:00:30.371Z,8.95
2023-05-14T21:02:59.547Z,5.87
2023-05-14T21:05:27.737Z,5.83
2023-05-14T21:07:55.690Z,6.70
2023-05-14T21:10:23.891Z,6.03
2023-05-14T21:12:52.365Z,6.88
2023-05-14T21:15:21.643Z,7.13
2023-05-14T21:17:49.452Z,5.70
2023-05-14T21:20:17.186Z,8.45
2023-05-14T21:22:45.214Z,7.25
2023-05-14T21:25:13.179Z,6.68
2023-05-14T21:27:40.867Z,8.30
2023-05-14T21:30:09.715Z,7.82
2023-05-14T21:32:38.925Z,6.15
2023-05-14T21:35:07.535Z,9.60
2023-05-14T21:37:35.219Z,6.82
2023-05-14T21:40:02.961Z,8.18
2023-05-14T21:42:30.885Z,5.80
2023-05-14T21:44:58.585Z,11.73
2023-05-14T21:47:26.379Z,6.18
2023-05-14T21:49:55.667Z,9.40
2023-05-14T21:52:23.359Z,6.50
2023-05-14T21:54:51.019Z,7.95
2023-05-14T21:57:18.764Z,8.00
2023-05-14T21:59:46.589Z,7.50
2023-05-14T22:02:14.348Z,7.82
2023-05-14T22:04:42.141Z,7.57
2023-05-14T22:07:11.345Z,7.93
2023-05-14T22:09:39.190Z,7.97
2023-05-14T22:12:08.616Z,6.43
2023-05-14T22:14:36.455Z,5.60
2023-05-14T22:17:04.725Z,6.93
2023-05-14T22:19:33.040Z,5.60
2023-05-14T22:22:00.838Z,8.50
2023-05-14T22:24:30.009Z,9.35
2023-05-14T22:26:57.729Z,5.88
2023-05-14T22:29:25.432Z,7.63
2023-05-14T22:31:53.393Z,8.95
2023-05-14T22:34:21.139Z,9.63
2023-05-14T22:36:48.907Z,7.57
2023-05-14T22:39:16.584Z,20.33
2023-05-14T22:41:45.896Z,10.05
2023-05-14T22:44:13.587Z,8.15
2023-05-14T22:46:41.370Z,10.37
2023-05-14T22:49:09.133Z,9.88
2023-05-14T22:51:36.792Z,9.10
2023-05-14T22:54:04.931Z,9.70
2023-05-14T22:56:32.768Z,9.10
2023-05-14T22:59:02.029Z,9.30
2023-05-14T23:01:30.446Z,10.20
2023-05-14T23:03:58.545Z,7.35
2023-05-14T23:06:26.286Z,11.60
2023-05-14T23:08:54.041Z,9.27
2023-05-14T23:11:22.748Z,10.47
2023-05-14T23:13:50.574Z,11.52
2023-05-14T23:16:20.648Z,7.88
2023-05-14T23:18:48.721Z,10.32
2023-05-14T23:21:16.486Z,9.45
2023-05-14T23:23:45.376Z,8.73
2023-05-14T23:26:13.146Z,6.88
2023-05-14T23:28:41.142Z,9.18
2023-05-14T23:31:08.846Z,6.78
2023-05-14T23:33:39.838Z,15.57
2023-05-14T23:36:08.651Z,8.95
2023-05-14T23:38:59.489Z,7.90
2023-05-14T23:41:27.392Z,8.50
2023-05-14T23:43:55.368Z,10.90
2023-05-14T23:46:23.261Z,15.20
2023-05-14T23:48:52.420Z,11.60
2023-05-14T23:51:20.130Z,9.90
2023-05-14T23:53:48.206Z,9.80
2023-05-14T23:56:15.872Z,13.23
2023-05-14T23:58:43.984Z,7.88
